createdAt,value
2022-10-21T00:00:30.890Z,81.10
2022-10-21T00:01:35.335Z,81.22
2022-10-21T00:02:39.369Z,81.31
2022-10-21T00:03:43.555Z,81.22
2022-10-21T00:04:47.184Z,81.36
2022-10-21T00:05:54.582Z,81.00
2022-10-21T00:06:58.694Z,81.12
2022-10-21T00:08:02.576Z,81.08
2022-10-21T00:09:09.333Z,81.56
2022-10-21T00:10:14.672Z,81.30
2022-10-21T00:11:19.167Z,81.27
2022-10-21T00:12:23.958Z,81.67
2022-10-21T00:13:30.726Z,81.78
2022-10-21T00:14:35.663Z,81.44
2022-10-21T00:15:39.794Z,81.77
2022-10-21T00:16:43.941Z,81.94
2022-10-21T00:17:48.012Z,81.78
2022-10-21T00:18:52.420Z,81.68
2022-10-21T00:19:56.554Z,81.61
2022-10-21T00:21:00.907Z,81.42
2022-10-21T00:22:04.897Z,81.49
2022-10-21T00:23:08.558Z,81.34
2022-10-21T00:24:12.221Z,81.63
2022-10-21T00:25:16.958Z,81.59
2022-10-21T00:26:21.257Z,81.65
2022-10-21T00:27:25.374Z,81.73
2022-10-21T00:28:29.860Z,81.65
2022-10-21T00:29:33.905Z,81.68
2022-10-21T00:30:37.646Z,81.74
2022-10-21T00:31:41.713Z,81.70
2022-10-21T00:32:46.002Z,81.79
2022-10-21T00:33:49.929Z,81.63
2022-10-21T00:34:57.038Z,81.54
2022-10-21T00:36:03.173Z,81.55
2022-10-21T00:37:06.874Z,81.96
2022-10-21T00:38:10.799Z,81.36
2022-10-21T00:39:15.716Z,81.46
2022-10-21T00:40:19.706Z,81.72
2022-10-21T00:41:24.151Z,81.53
2022-10-21T00:42:43.733Z,81.98
2022-10-21T00:44:08.758Z,81.86
2022-10-21T00:45:32.103Z,82.41
2022-10-21T00:47:03.577Z,82.33
2022-10-21T00:48:19.045Z,82.28
2022-10-21T00:49:45.534Z,82.53
2022-10-21T00:51:06.724Z,82.91
2022-10-21T00:52:18.642Z,82.89
2022-10-21T00:53:23.243Z,82.37
2022-10-21T00:54:30.047Z,82.38
2022-10-21T00:55:39.865Z,82.11
2022-10-21T00:56:48.641Z,82.48
2022-10-21T00:57:53.350Z,82.51
2022-10-21T00:59:02.158Z,82.67
2022-10-21T01:00:09.033Z,82.54
2022-10-21T01:01:16.492Z,82.86
2022-10-21T01:02:23.631Z,82.76
2022-10-21T01:03:31.771Z,82.74
2022-10-21T01:04:36.182Z,82.72
2022-10-21T01:05:42.532Z,83.21
2022-10-21T01:06:47.749Z,83.17
2022-10-21T01:07:52.359Z,83.58
2022-10-21T01:08:58.378Z,83.69
2022-10-21T01:10:02.375Z,83.30
2022-10-21T01:11:15.239Z,83.38
2022-10-21T01:12:48.976Z,83.32
2022-10-21T01:14:26.905Z,83.89
2022-10-21T01:16:07.430Z,84.20
2022-10-21T01:17:55.128Z,84.68
2022-10-21T01:19:21.724Z,84.05
2022-10-21T01:21:21.744Z,83.87
2022-10-21T01:22:39.268Z,83.91
2022-10-21T01:23:58.172Z,83.71
2022-10-21T01:25:20.231Z,83.93
2022-10-21T01:27:06.059Z,83.48
2022-10-21T01:28:52.133Z,83.90
2022-10-21T01:30:06.433Z,84.17
2022-10-21T01:31:42.702Z,83.96
2022-10-21T01:33:18.064Z,83.78
2022-10-21T01:34:43.883Z,83.95
2022-10-21T01:36:09.538Z,83.75
2022-10-21T01:37:47.664Z,83.70
2022-10-21T01:39:40.604Z,83.76
2022-10-21T01:41:16.103Z,84.05
2022-10-21T01:42:41.633Z,83.94
2022-10-21T01:44:07.197Z,84.25
2022-10-21T01:45:37.721Z,84.11
2022-10-21T01:46:59.624Z,84.26
2022-10-21T01:48:19.704Z,84.48
2022-10-21T01:49:37.098Z,84.14
2022-10-21T01:50:58.965Z,84.05
2022-10-21T01:52:05.084Z,84.05
2022-10-21T01:53:14.353Z,84.05
2022-10-21T01:54:30.524Z,83.94
2022-10-21T01:55:36.723Z,83.87
2022-10-21T01:56:47.020Z,84.04
2022-10-21T01:57:59.796Z,83.94
2022-10-21T01:59:05.865Z,83.55
2022-10-21T02:00:11.081Z,83.56
2022-10-21T02:03:34.456Z,83.57
2022-10-21T02:04:44.907Z,83.62
2022-10-21T02:05:49.037Z,83.88
2022-10-21T02:06:52.918Z,84.20
2022-10-21T02:07:57.052Z,84.88
2022-10-21T02:09:01.507Z,84.27
2022-10-21T02:10:06.768Z,84.02
2022-10-21T02:11:13.825Z,83.63
2022-10-21T02:12:19.921Z,83.64
2022-10-21T02:13:32.955Z,83.68
2022-10-21T02:14:47.027Z,83.95
2022-10-21T02:15:56.710Z,83.73
2022-10-21T02:17:01.310Z,83.80
2022-10-21T02:18:17.497Z,83.91
2022-10-21T02:19:22.133Z,83.77
2022-10-21T02:20:29.755Z,84.06
2022-10-21T02:21:36.941Z,83.62
2022-10-21T02:22:45.737Z,83.87
2022-10-21T02:24:13.090Z,84.35
2022-10-21T02:25:26.258Z,84.14
2022-10-21T02:26:30.283Z,84.12
2022-10-21T02:27:34.116Z,84.18
2022-10-21T02:29:52.036Z,84.19
2022-10-21T02:31:22.354Z,84.45
2022-10-21T02:32:43.097Z,84.17
2022-10-21T02:34:05.484Z,83.81
2022-10-21T02:35:55.837Z,84.04
2022-10-21T02:37:52.722Z,84.01
2022-10-21T02:39:12.102Z,84.00
2022-10-21T02:40:30.304Z,83.87
2022-10-21T02:41:36.959Z,84.13
2022-10-21T02:42:52.298Z,83.99
2022-10-21T02:44:03.524Z,83.88
2022-10-21T02:45:09.931Z,84.33
2022-10-21T02:46:15.549Z,84.38
2022-10-21T02:47:19.628Z,84.69
2022-10-21T02:48:23.528Z,84.80
2022-10-21T02:49:27.651Z,84.69
2022-10-21T02:50:31.916Z,84.77
2022-10-21T02:51:36.029Z,84.66
2022-10-21T02:52:39.856Z,84.72
2022-10-21T02:53:43.987Z,84.44
2022-10-21T02:54:47.962Z,84.29
2022-10-21T02:55:51.685Z,84.31
2022-10-21T02:56:55.665Z,84.35
2022-10-21T02:58:00.767Z,84.15
2022-10-21T02:59:04.369Z,84.37
2022-10-21T03:00:09.107Z,84.22
2022-10-21T03:01:13.491Z,84.54
2022-10-21T03:02:17.610Z,84.95
2022-10-21T03:03:21.636Z,85.37
2022-10-21T03:04:25.347Z,85.05
2022-10-21T03:06:33.567Z,85.09
2022-10-21T03:07:37.307Z,85.19
2022-10-21T03:08:41.282Z,85.45
2022-10-21T03:09:44.904Z,85.61
2022-10-21T03:10:53.507Z,85.54
2022-10-21T03:11:57.384Z,85.87
2022-10-21T03:13:01.080Z,85.97
2022-10-21T03:14:05.195Z,85.54
2022-10-21T03:15:09.521Z,85.36
2022-10-21T03:16:13.872Z,85.08
2022-10-21T03:17:21.538Z,85.45
2022-10-21T03:18:28.254Z,85.80
2022-10-21T03:19:33.216Z,85.82
2022-10-21T03:20:37.310Z,85.87
2022-10-21T03:21:41.131Z,86.29
2022-10-21T03:22:45.079Z,86.29
2022-10-21T03:23:49.122Z,86.22
2022-10-21T03:24:52.799Z,86.27
2022-10-21T03:25:56.538Z,86.34
2022-10-21T03:27:00.365Z,86.17
2022-10-21T03:28:04.695Z,85.90
2022-10-21T03:29:08.287Z,86.17
2022-10-21T03:30:11.990Z,86.32
2022-10-21T03:31:15.773Z,86.49
2022-10-21T03:32:19.834Z,87.26
2022-10-21T03:33:23.932Z,86.93
2022-10-21T03:34:30.704Z,86.12
2022-10-21T03:35:34.308Z,85.93
2022-10-21T03:36:37.874Z,85.84
2022-10-21T03:37:42.249Z,86.16
2022-10-21T03:38:45.881Z,86.34
2022-10-21T03:39:49.809Z,86.43
2022-10-21T03:40:53.753Z,86.73
2022-10-21T03:41:57.314Z,86.69
2022-10-21T03:43:01.910Z,86.28
2022-10-21T03:44:06.672Z,86.47
2022-10-21T03:45:12.051Z,86.65
2022-10-21T03:46:15.725Z,86.75
2022-10-21T03:47:19.344Z,86.84
2022-10-21T03:48:23.683Z,86.47
2022-10-21T03:49:27.558Z,86.41
2022-10-21T03:50:31.699Z,86.67
2022-10-21T03:51:35.474Z,86.82
2022-10-21T03:52:39.440Z,86.93
2022-10-21T03:53:44.112Z,86.23
2022-10-21T03:54:47.812Z,86.40
2022-10-21T03:55:56.488Z,86.65
2022-10-21T03:57:00.618Z,87.17
2022-10-21T03:58:04.885Z,87.28
2022-10-21T03:59:08.810Z,87.03
2022-10-21T04:00:13.961Z,86.92
2022-10-21T04:01:17.608Z,87.03
2022-10-21T04:02:21.990Z,86.91
2022-10-21T04:03:25.807Z,87.03
2022-10-21T04:04:29.773Z,87.20
2022-10-21T04:05:33.935Z,87.77
2022-10-21T04:06:37.651Z,88.72
2022-10-21T04:07:42.035Z,88.07
2022-10-21T04:08:45.711Z,87.48
2022-10-21T04:09:50.181Z,87.47
2022-10-21T04:10:56.846Z,87.77
2022-10-21T04:12:00.834Z,87.48
2022-10-21T04:13:04.699Z,87.79
2022-10-21T04:14:11.574Z,87.63
2022-10-21T04:15:18.792Z,86.93
2022-10-21T04:16:23.514Z,86.88
2022-10-21T04:17:27.285Z,86.80
2022-10-21T04:18:31.432Z,86.58
2022-10-21T04:19:35.648Z,87.23
2022-10-21T04:20:39.620Z,87.06
2022-10-21T04:21:43.809Z,87.45
2022-10-21T04:22:47.717Z,87.33
2022-10-21T04:23:51.823Z,87.63
2022-10-21T04:24:55.414Z,87.83
2022-10-21T04:25:59.314Z,87.96
2022-10-21T04:27:03.146Z,87.99
2022-10-21T04:28:06.711Z,87.94
2022-10-21T04:29:10.330Z,87.90
2022-10-21T04:30:13.983Z,88.00
2022-10-21T04:31:17.815Z,88.30
2022-10-21T04:32:21.828Z,88.28
2022-10-21T04:33:25.630Z,87.65
2022-10-21T04:34:29.253Z,87.02
2022-10-21T04:35:36.082Z,86.98
2022-10-21T04:36:39.951Z,87.51
2022-10-21T04:37:45.069Z,87.54
2022-10-21T04:38:49.360Z,87.16
2022-10-21T04:39:53.999Z,87.14
2022-10-21T04:41:00.731Z,87.43
2022-10-21T04:42:04.817Z,87.74
2022-10-21T04:43:10.013Z,88.01
2022-10-21T04:44:13.977Z,87.97
2022-10-21T04:45:19.009Z,87.90
2022-10-21T04:46:23.331Z,87.53
2022-10-21T04:47:27.405Z,87.49
2022-10-21T04:48:31.122Z,87.71
2022-10-21T04:49:35.463Z,88.26
2022-10-21T04:50:39.452Z,89.06
2022-10-21T04:51:43.371Z,89.15
2022-10-21T04:52:47.956Z,89.01
2022-10-21T04:53:52.249Z,89.01
2022-10-21T04:54:55.850Z,88.94
2022-10-21T04:55:59.599Z,88.84
2022-10-21T04:57:03.354Z,88.68
2022-10-21T04:58:07.836Z,88.48
2022-10-21T04:59:12.171Z,88.55
2022-10-21T05:00:16.354Z,88.51
2022-10-21T05:01:20.453Z,88.42
2022-10-21T05:02:25.633Z,88.34
2022-10-21T05:03:29.762Z,87.88
2022-10-21T05:04:33.943Z,88.12
2022-10-21T05:05:37.938Z,87.85
2022-10-21T05:06:41.747Z,88.12
2022-10-21T05:07:45.935Z,87.74
2022-10-21T05:08:49.995Z,87.89
2022-10-21T05:09:54.034Z,87.53
2022-10-21T05:11:03.156Z,88.05
2022-10-21T05:12:07.374Z,87.72
2022-10-21T05:13:11.957Z,88.03
2022-10-21T05:14:20.013Z,88.25
2022-10-21T05:15:26.922Z,87.71
2022-10-21T05:16:31.005Z,87.27
2022-10-21T05:17:36.887Z,87.16
2022-10-21T05:18:40.866Z,87.10
2022-10-21T05:19:45.049Z,87.00
2022-10-21T05:20:53.964Z,87.00
2022-10-21T05:21:57.963Z,87.40
2022-10-21T05:23:01.876Z,87.45
2022-10-21T05:24:06.028Z,87.62
2022-10-21T05:25:10.456Z,87.28
2022-10-21T05:26:14.035Z,87.66
2022-10-21T05:27:18.413Z,88.00
2022-10-21T05:28:23.325Z,87.60
2022-10-21T05:29:28.608Z,87.35
2022-10-21T05:30:33.311Z,87.48
2022-10-21T05:31:37.379Z,87.43
2022-10-21T05:32:42.300Z,87.43
2022-10-21T05:33:46.051Z,87.30
2022-10-21T05:34:50.047Z,87.19
2022-10-21T05:36:02.784Z,87.75
2022-10-21T05:37:06.846Z,87.65
2022-10-21T05:38:11.714Z,88.09
2022-10-21T05:39:16.574Z,87.92
2022-10-21T05:40:20.372Z,87.84
2022-10-21T05:41:24.613Z,87.29
2022-10-21T05:42:28.367Z,87.42
2022-10-21T05:43:32.262Z,87.45
2022-10-21T05:44:36.158Z,86.72
2022-10-21T05:45:39.759Z,86.54
2022-10-21T05:46:43.926Z,86.64
2022-10-21T05:47:47.551Z,86.74
2022-10-21T05:48:52.952Z,86.81
2022-10-21T05:49:57.353Z,86.94
2022-10-21T05:51:01.181Z,86.96
2022-10-21T05:52:08.563Z,86.51
2022-10-21T05:53:16.739Z,86.86
2022-10-21T05:54:21.852Z,86.48
2022-10-21T05:55:25.798Z,86.45
2022-10-21T05:56:30.093Z,86.14
2022-10-21T05:57:38.656Z,86.19
2022-10-21T05:58:42.409Z,85.96
2022-10-21T05:59:46.622Z,85.98
2022-10-21T06:00:54.805Z,85.94
2022-10-21T06:01:58.576Z,85.91
2022-10-21T06:03:03.563Z,86.03
2022-10-21T06:04:07.946Z,85.76
2022-10-21T06:05:11.716Z,85.84
2022-10-21T06:06:15.841Z,86.11
2022-10-21T06:07:19.412Z,85.81
2022-10-21T06:08:24.152Z,85.56
2022-10-21T06:09:31.719Z,85.37
2022-10-21T06:10:36.638Z,85.36
2022-10-21T06:11:41.014Z,85.30
2022-10-21T06:12:44.831Z,85.05
2022-10-21T06:13:49.484Z,85.26
2022-10-21T06:14:55.176Z,85.04
2022-10-21T06:16:00.460Z,85.01
2022-10-21T06:17:05.169Z,85.27
2022-10-21T06:18:12.471Z,85.32
2022-10-21T06:19:16.962Z,85.27
2022-10-21T06:20:24.387Z,84.34
2022-10-21T06:21:28.425Z,84.62
2022-10-21T06:22:32.694Z,84.15
2022-10-21T06:23:36.954Z,84.01
2022-10-21T06:24:40.694Z,84.12
2022-10-21T06:26:10.920Z,83.71
2022-10-21T06:27:15.899Z,83.82
2022-10-21T06:28:19.601Z,84.00
2022-10-21T06:29:23.750Z,84.13
2022-10-21T06:30:27.734Z,84.33
2022-10-21T06:31:31.329Z,84.15
2022-10-21T06:32:35.937Z,84.47
2022-10-21T06:33:40.352Z,84.02
2022-10-21T06:34:44.713Z,83.38
2022-10-21T06:35:49.430Z,83.65
2022-10-21T06:36:53.710Z,82.98
2022-10-21T06:37:57.927Z,82.86
2022-10-21T06:39:03.541Z,83.09
2022-10-21T06:40:09.684Z,83.42
2022-10-21T06:41:15.655Z,83.39
2022-10-21T06:42:20.444Z,83.13
2022-10-21T06:43:25.015Z,83.01
2022-10-21T06:44:28.883Z,82.87
2022-10-21T06:45:33.087Z,82.89
2022-10-21T06:46:37.714Z,83.13
2022-10-21T06:47:42.276Z,83.20
2022-10-21T06:48:46.411Z,83.29
2022-10-21T06:49:50.559Z,83.15
2022-10-21T06:51:04.223Z,83.19
2022-10-21T06:52:08.913Z,83.37
2022-10-21T06:53:12.569Z,83.04
2022-10-21T06:54:18.819Z,83.04
2022-10-21T06:55:22.516Z,83.00
2022-10-21T06:56:27.934Z,83.26
2022-10-21T06:57:32.154Z,83.27
2022-10-21T06:58:38.484Z,83.40
2022-10-21T06:59:44.749Z,83.09
2022-10-21T07:00:48.687Z,83.06
2022-10-21T07:02:00.221Z,83.09
2022-10-21T07:03:06.959Z,83.48
2022-10-21T07:04:11.699Z,83.03
2022-10-21T07:05:16.499Z,82.70
2022-10-21T07:06:20.986Z,82.15
2022-10-21T07:07:27.958Z,82.35
2022-10-21T07:08:46.718Z,82.24
2022-10-21T07:09:58.019Z,82.05
2022-10-21T07:11:02.009Z,81.81
2022-10-21T07:12:06.153Z,81.69
2022-10-21T07:13:10.264Z,81.83
2022-10-21T07:14:14.909Z,81.28
2022-10-21T07:15:19.011Z,81.01
2022-10-21T07:16:30.387Z,81.29
2022-10-21T07:17:34.819Z,81.27
2022-10-21T07:18:41.899Z,81.33
2022-10-21T07:19:47.493Z,81.54
2022-10-21T07:20:52.090Z,81.44
2022-10-21T07:21:55.886Z,81.85
2022-10-21T07:22:59.846Z,81.69
2022-10-21T07:24:03.802Z,81.91
2022-10-21T07:25:08.925Z,81.92
2022-10-21T07:26:15.215Z,81.82
2022-10-21T07:27:19.168Z,81.81
2022-10-21T07:28:22.923Z,81.56
2022-10-21T07:29:26.883Z,81.67
2022-10-21T07:30:31.510Z,81.65
2022-10-21T07:31:38.767Z,82.03
2022-10-21T07:32:42.820Z,82.16
2022-10-21T07:33:47.204Z,82.46
2022-10-21T07:34:51.197Z,81.96
2022-10-21T07:36:20.854Z,81.72
2022-10-21T07:37:27.825Z,81.27
2022-10-21T07:38:31.510Z,81.61
2022-10-21T07:39:35.456Z,80.07
2022-10-21T07:40:42.826Z,78.19
2022-10-21T07:41:51.386Z,76.92
2022-10-21T07:42:57.140Z,75.34
2022-10-21T07:44:07.539Z,72.34
2022-10-21T07:45:12.558Z,69.21
2022-10-21T07:46:19.430Z,68.32
2022-10-21T07:47:23.485Z,65.93
2022-10-21T07:48:27.717Z,65.51
2022-10-21T07:49:31.471Z,63.84
2022-10-21T07:50:36.189Z,63.41
2022-10-21T07:51:41.320Z,63.03
2022-10-21T07:52:53.440Z,62.47
2022-10-21T07:54:09.072Z,61.74
2022-10-21T07:55:17.865Z,60.83
2022-10-21T07:56:44.825Z,60.80
2022-10-21T07:57:51.806Z,60.43
2022-10-21T07:58:57.217Z,60.62
2022-10-21T08:00:01.157Z,61.51
2022-10-21T08:01:11.334Z,61.42
2022-10-21T08:02:16.194Z,61.58
2022-10-21T08:03:20.205Z,62.67
2022-10-21T08:04:30.213Z,63.04
2022-10-21T08:05:34.177Z,63.16
2022-10-21T08:06:38.866Z,62.75
2022-10-21T08:07:43.302Z,63.19
2022-10-21T08:08:51.307Z,61.98
2022-10-21T08:09:55.153Z,61.19
2022-10-21T08:10:59.433Z,60.41
2022-10-21T08:12:03.597Z,58.92
2022-10-21T08:13:07.393Z,58.06
2022-10-21T08:14:12.422Z,57.63
2022-10-21T08:15:16.187Z,57.56
2022-10-21T08:16:21.216Z,56.57
2022-10-21T08:17:25.247Z,56.08
2022-10-21T08:18:29.524Z,55.80
2022-10-21T08:19:36.762Z,54.96
2022-10-21T08:20:47.018Z,54.01
2022-10-21T08:21:51.350Z,52.45
2022-10-21T08:22:55.256Z,51.38
2022-10-21T08:24:02.597Z,50.38
2022-10-21T08:25:06.952Z,48.82
2022-10-21T08:26:16.216Z,47.24
2022-10-21T08:27:19.902Z,45.19
2022-10-21T08:28:26.780Z,45.47
2022-10-21T08:29:30.340Z,44.25
2022-10-21T08:30:34.208Z,44.43
2022-10-21T08:31:39.184Z,42.50
2022-10-21T08:32:43.086Z,42.49
2022-10-21T08:33:46.886Z,43.17
2022-10-21T08:34:50.863Z,42.90
2022-10-21T08:35:54.576Z,43.01
2022-10-21T08:36:58.362Z,42.90
2022-10-21T08:38:02.427Z,43.69
2022-10-21T08:39:06.966Z,44.51
2022-10-21T08:40:12.845Z,45.67
2022-10-21T08:41:31.723Z,47.00
2022-10-21T08:42:36.458Z,47.81
2022-10-21T08:43:43.306Z,48.77
2022-10-21T08:45:08.772Z,48.54
2022-10-21T08:46:23.918Z,48.74
2022-10-21T08:47:45.969Z,49.19
2022-10-21T08:48:59.380Z,48.93
2022-10-21T08:50:16.368Z,49.74
2022-10-21T08:51:55.609Z,48.97
2022-10-21T08:53:33.938Z,48.24
2022-10-21T08:54:54.835Z,48.77
2022-10-21T08:56:06.898Z,48.26
2022-10-21T08:57:12.579Z,47.83
2022-10-21T08:58:22.158Z,49.19
2022-10-21T08:59:26.983Z,49.41
2022-10-21T09:00:45.038Z,49.30
2022-10-21T09:02:13.306Z,49.85
2022-10-21T09:03:55.772Z,49.40
2022-10-21T09:05:41.495Z,49.67
2022-10-21T09:07:07.298Z,49.76
2022-10-21T09:08:39.024Z,49.44
2022-10-21T09:10:01.801Z,49.77
2022-10-21T09:11:19.855Z,50.44
2022-10-21T09:13:25.612Z,51.36
2022-10-21T09:15:17.357Z,52.82
2022-10-21T09:16:43.667Z,53.53
2022-10-21T09:18:18.009Z,53.63
2022-10-21T09:19:49.098Z,53.83
2022-10-21T09:21:36.014Z,54.78
2022-10-21T09:22:54.462Z,54.92
2022-10-21T09:24:12.557Z,55.74
2022-10-21T09:25:57.049Z,56.14
2022-10-21T09:27:04.751Z,56.85
2022-10-21T09:28:16.540Z,56.80
2022-10-21T09:29:26.914Z,57.17
2022-10-21T09:30:30.779Z,57.58
2022-10-21T09:31:34.952Z,57.43
2022-10-21T09:32:42.055Z,57.43
2022-10-21T09:34:02.114Z,58.24
2022-10-21T09:35:41.264Z,59.09
2022-10-21T09:36:50.272Z,59.47
2022-10-21T09:38:06.121Z,59.67
2022-10-21T09:39:32.415Z,60.37
2022-10-21T09:40:36.619Z,60.39
2022-10-21T09:41:46.828Z,60.44
2022-10-21T09:42:56.436Z,60.49
2022-10-21T09:44:00.096Z,61.08
2022-10-21T09:45:06.029Z,61.15
2022-10-21T09:46:14.567Z,61.03
2022-10-21T09:47:25.088Z,62.17
2022-10-21T09:50:20.553Z,62.28
2022-10-21T09:51:35.508Z,62.47
2022-10-21T09:52:40.310Z,62.49
2022-10-21T09:53:59.440Z,63.83
2022-10-21T09:55:06.254Z,63.32
2022-10-21T09:56:46.637Z,65.60
2022-10-21T09:58:00.679Z,66.24
2022-10-21T09:59:09.938Z,67.14
2022-10-21T10:00:14.398Z,66.80
2022-10-21T10:01:23.785Z,66.55
2022-10-21T10:02:37.067Z,68.41
2022-10-21T10:03:52.267Z,68.05
2022-10-21T10:04:57.292Z,68.87
2022-10-21T10:06:04.880Z,68.07
2022-10-21T10:07:32.959Z,69.53
2022-10-21T10:08:44.780Z,69.74
2022-10-21T10:09:49.278Z,69.37
2022-10-21T10:11:02.632Z,69.74
2022-10-21T10:12:15.052Z,70.07
2022-10-21T10:13:20.899Z,69.23
2022-10-21T10:14:29.855Z,68.57
2022-10-21T10:15:40.528Z,68.34
2022-10-21T10:16:45.329Z,68.00
2022-10-21T10:17:49.497Z,67.69
2022-10-21T10:19:28.208Z,67.53
2022-10-21T10:20:32.468Z,67.81
2022-10-21T10:21:36.648Z,67.35
2022-10-21T10:22:45.816Z,67.04
2022-10-21T10:23:56.012Z,66.81
2022-10-21T10:25:24.464Z,67.53
2022-10-21T10:26:38.506Z,66.83
2022-10-21T10:28:08.352Z,66.48
2022-10-21T10:29:28.614Z,66.39
2022-10-21T10:31:12.015Z,65.79
2022-10-21T10:32:17.268Z,65.81
2022-10-21T10:33:36.820Z,65.61
2022-10-21T10:34:56.601Z,65.49
2022-10-21T10:36:09.455Z,65.18
2022-10-21T10:37:27.449Z,65.30
2022-10-21T10:38:45.466Z,64.68
2022-10-21T10:39:58.262Z,64.86
2022-10-21T10:41:17.040Z,64.93
2022-10-21T10:42:27.788Z,64.79
2022-10-21T10:43:36.023Z,64.74
2022-10-21T10:44:44.283Z,65.52
2022-10-21T10:45:58.529Z,65.34
2022-10-21T10:47:06.322Z,65.26
2022-10-21T10:48:24.381Z,65.21
2022-10-21T10:49:36.475Z,65.56
2022-10-21T10:50:51.121Z,65.43
2022-10-21T10:52:10.363Z,65.87
2022-10-21T10:53:26.280Z,65.37
2022-10-21T10:54:30.765Z,65.93
2022-10-21T10:55:42.545Z,65.87
2022-10-21T10:56:55.639Z,65.97
2022-10-21T10:58:12.404Z,65.91
2022-10-21T10:59:39.602Z,66.04
2022-10-21T11:00:48.422Z,65.93
2022-10-21T11:02:31.974Z,66.04
2022-10-21T11:03:57.631Z,66.17
2022-10-21T11:05:17.855Z,66.11
2022-10-21T11:06:40.365Z,66.45
2022-10-21T11:07:53.333Z,65.98
2022-10-21T11:09:02.980Z,66.49
2022-10-21T11:10:33.486Z,66.24
2022-10-21T11:11:44.474Z,65.61
2022-10-21T11:12:48.455Z,65.50
2022-10-21T11:13:54.029Z,65.54
2022-10-21T11:15:00.442Z,65.33
2022-10-21T11:16:31.414Z,65.45
2022-10-21T11:17:53.973Z,65.54
2022-10-21T11:19:22.385Z,65.31
2022-10-21T11:20:40.832Z,65.11
2022-10-21T11:22:14.377Z,65.68
2022-10-21T11:23:57.813Z,65.33
2022-10-21T11:25:44.136Z,65.37
2022-10-21T11:27:16.798Z,65.35
2022-10-21T11:28:47.595Z,65.25
2022-10-21T11:30:22.303Z,65.08
2022-10-21T11:32:09.767Z,65.48
2022-10-21T11:33:56.211Z,65.40
2022-10-21T11:35:42.243Z,65.13
2022-10-21T11:37:28.122Z,65.63
2022-10-21T11:39:08.593Z,65.96
2022-10-21T11:40:43.483Z,66.22
2022-10-21T11:42:14.903Z,66.33
2022-10-21T11:44:03.561Z,66.00
2022-10-21T11:45:26.411Z,66.37
2022-10-21T11:47:43.371Z,65.94
2022-10-21T11:49:07.322Z,66.05
2022-10-21T11:50:32.878Z,66.18
2022-10-21T11:52:42.766Z,66.35
2022-10-21T11:54:07.715Z,66.42
2022-10-21T11:55:42.573Z,66.54
2022-10-21T11:57:14.136Z,66.24
2022-10-21T11:58:38.055Z,66.33
2022-10-21T12:00:24.252Z,66.41
2022-10-21T12:01:49.430Z,66.32
2022-10-21T12:03:14.843Z,66.34
2022-10-21T12:05:03.582Z,66.41
2022-10-21T12:06:38.979Z,65.97
2022-10-21T12:08:10.326Z,66.21
2022-10-21T12:09:31.270Z,66.09
2022-10-21T12:11:03.987Z,65.94
2022-10-21T12:12:34.421Z,65.98
2022-10-21T12:14:00.566Z,65.87
2022-10-21T12:15:26.096Z,65.63
2022-10-21T12:16:34.809Z,65.70
2022-10-21T12:17:38.950Z,65.45
2022-10-21T12:18:58.275Z,65.60
2022-10-21T12:20:22.786Z,65.61
2022-10-21T12:21:40.674Z,65.57
2022-10-21T12:22:46.310Z,65.08
2022-10-21T12:24:06.259Z,65.49
2022-10-21T12:25:12.654Z,64.92
2022-10-21T12:26:40.677Z,65.30
2022-10-21T12:27:59.224Z,65.09
2022-10-21T12:29:56.159Z,65.18
2022-10-21T12:31:16.933Z,64.92
2022-10-21T12:32:45.279Z,64.69
2022-10-21T12:33:50.674Z,64.84
2022-10-21T12:34:55.138Z,64.46
2022-10-21T12:36:38.932Z,64.32
2022-10-21T12:38:05.767Z,63.95
2022-10-21T12:39:35.410Z,64.00
2022-10-21T12:40:43.871Z,63.76
2022-10-21T12:41:48.637Z,63.64
2022-10-21T12:43:28.711Z,63.42
2022-10-21T12:44:33.834Z,63.23
2022-10-21T12:45:39.191Z,63.13
2022-10-21T12:47:21.010Z,62.93
2022-10-21T12:48:44.531Z,63.12
2022-10-21T12:50:22.762Z,63.06
2022-10-21T12:51:33.906Z,62.92
2022-10-21T12:52:39.205Z,62.56
2022-10-21T12:54:16.728Z,62.36
2022-10-21T12:55:28.337Z,62.10
2022-10-21T12:56:42.782Z,62.14
2022-10-21T12:57:56.261Z,61.87
2022-10-21T12:59:05.513Z,61.84
2022-10-21T13:00:28.313Z,61.70
2022-10-21T13:01:45.397Z,61.49
2022-10-21T13:03:10.931Z,61.47
2022-10-21T13:04:32.708Z,61.13
2022-10-21T13:05:39.788Z,61.40
2022-10-21T13:06:58.680Z,61.31
2022-10-21T13:08:16.185Z,61.32
2022-10-21T13:09:44.770Z,61.03
2022-10-21T13:11:04.187Z,61.14
2022-10-21T13:12:11.009Z,61.16
2022-10-21T13:13:44.145Z,60.83
2022-10-21T13:14:52.079Z,60.92
2022-10-21T13:15:56.738Z,60.94
2022-10-21T13:17:21.992Z,60.70
2022-10-21T13:18:52.265Z,60.87
2022-10-21T13:20:21.518Z,61.00
2022-10-21T13:21:40.979Z,60.54
2022-10-21T13:23:03.574Z,60.22
2022-10-21T13:24:32.159Z,60.05
2022-10-21T13:25:36.903Z,60.04
2022-10-21T13:27:18.646Z,59.89
2022-10-21T13:28:26.481Z,59.83
2022-10-21T13:29:43.059Z,59.51
2022-10-21T13:30:50.117Z,59.57
2022-10-21T13:32:15.394Z,59.45
2022-10-21T13:33:27.340Z,59.12
2022-10-21T13:34:32.561Z,59.89
2022-10-21T13:35:50.295Z,59.73
2022-10-21T13:36:55.366Z,59.96
2022-10-21T13:38:18.150Z,60.03
2022-10-21T13:39:29.349Z,58.96
2022-10-21T13:40:50.284Z,59.30
2022-10-21T13:42:05.875Z,58.80
2022-10-21T13:43:24.713Z,58.73
2022-10-21T13:44:37.030Z,58.82
2022-10-21T13:45:50.325Z,58.67
2022-10-21T13:46:54.207Z,58.92
2022-10-21T13:48:14.473Z,58.80
2022-10-21T13:49:32.884Z,58.80
2022-10-21T13:50:41.790Z,58.43
2022-10-21T13:51:47.281Z,58.55
2022-10-21T13:52:55.369Z,58.49
2022-10-21T13:54:11.813Z,58.40
2022-10-21T13:55:25.649Z,57.81
2022-10-21T13:56:34.000Z,57.79
2022-10-21T13:57:38.561Z,58.27
2022-10-21T13:58:44.578Z,58.42
2022-10-21T14:00:17.573Z,57.96
2022-10-21T14:01:29.638Z,57.58
2022-10-21T14:02:34.288Z,57.81
2022-10-21T14:03:38.457Z,58.09
2022-10-21T14:04:43.096Z,57.83
2022-10-21T14:06:01.768Z,57.94
2022-10-21T14:07:16.242Z,57.95
2022-10-21T14:08:37.847Z,57.20
2022-10-21T14:09:45.977Z,57.61
2022-10-21T14:10:50.117Z,57.89
2022-10-21T14:12:09.696Z,57.69
2022-10-21T14:13:14.479Z,57.86
2022-10-21T14:14:23.576Z,57.60
2022-10-21T14:15:44.883Z,57.46
2022-10-21T14:16:57.892Z,57.61
2022-10-21T14:18:02.310Z,57.71
2022-10-21T14:19:15.310Z,58.06
2022-10-21T14:20:34.130Z,57.61
2022-10-21T14:21:47.663Z,57.71
2022-10-21T14:22:54.925Z,57.89
2022-10-21T14:23:59.547Z,57.74
2022-10-21T14:25:03.910Z,57.66
2022-10-21T14:26:09.649Z,57.44
2022-10-21T14:27:23.263Z,57.58
2022-10-21T14:28:27.349Z,57.84
2022-10-21T14:29:35.983Z,57.65
2022-10-21T14:30:40.070Z,57.61
2022-10-21T14:31:46.576Z,57.98
2022-10-21T14:32:52.312Z,57.83
2022-10-21T14:33:56.588Z,57.91
2022-10-21T14:35:09.993Z,57.90
2022-10-21T14:36:26.422Z,58.33
2022-10-21T14:37:48.247Z,58.08
2022-10-21T14:39:05.839Z,58.49
2022-10-21T14:40:32.743Z,58.48
2022-10-21T14:41:44.893Z,58.56
2022-10-21T14:42:53.349Z,58.75
2022-10-21T14:44:07.260Z,58.84
2022-10-21T14:45:22.829Z,59.04
2022-10-21T14:46:26.579Z,59.19
2022-10-21T14:47:30.364Z,59.19
2022-10-21T14:48:59.962Z,59.05
2022-10-21T14:50:18.167Z,59.25
2022-10-21T14:51:23.409Z,59.20
2022-10-21T14:52:39.021Z,59.18
2022-10-21T14:53:53.127Z,59.31
2022-10-21T14:55:14.338Z,59.00
2022-10-21T14:56:43.365Z,59.34
2022-10-21T14:58:01.475Z,59.05
2022-10-21T14:59:46.105Z,59.29
2022-10-21T15:01:01.887Z,58.91
2022-10-21T15:02:23.482Z,59.25
2022-10-21T15:03:38.791Z,59.11
2022-10-21T15:04:58.645Z,58.87
2022-10-21T15:06:32.066Z,58.95
2022-10-21T15:07:39.613Z,59.14
2022-10-21T15:09:06.416Z,59.02
2022-10-21T15:10:20.495Z,59.03
2022-10-21T15:11:41.847Z,58.90
2022-10-21T15:12:51.739Z,59.23
2022-10-21T15:14:13.004Z,59.11
2022-10-21T15:15:57.600Z,59.45
2022-10-21T15:17:10.985Z,59.48
2022-10-21T15:18:32.735Z,59.54
2022-10-21T15:19:45.282Z,59.82
2022-10-21T15:21:24.001Z,59.97
2022-10-21T15:22:34.204Z,59.76
2022-10-21T15:23:50.867Z,59.94
2022-10-21T15:25:05.042Z,60.01
2022-10-21T15:26:38.079Z,60.22
2022-10-21T15:27:44.625Z,60.11
2022-10-21T15:28:51.347Z,60.37
2022-10-21T15:29:55.858Z,60.60
2022-10-21T15:31:21.509Z,60.59
2022-10-21T15:32:30.217Z,60.67
2022-10-21T15:33:34.765Z,60.88
2022-10-21T15:34:38.687Z,61.01
2022-10-21T15:35:43.581Z,61.09